Other Surface Observations
Issued by NWS Missoula, MT

Current Version | Previous Version | Text Only | Print | Product List | Glossary On
Versions: 1 2 3 4 5 6 7 8 9 10 11 12 13 14 15 16 17 18 19 20 21 22 23 24 25 26 27 28 29 30 31 32 33 34 35 36 37 38 39 40 41 42 43 44 45 46 47 48 49 50
843
SXUS55 KMSO 290743
OSOMSO
MONTANA AWOS SUMMARY
NATIONAL WEATHER SERVICE MISSOULA MT
143 AM MDT SUN MAY 29 2016

Montana AWOS Reports

LAUREL      |K6S8 290735Z AUTO 00000KT 40SM 07/02 A3003 RMK AO1 T00720022
TWIN BRIDGES|K7S1 290735Z AUTO 00000KT 40SM 06/02 A3006 RMK AO1 T00610017
ROUNDUP     |KRPX 290735Z AUTO 00000KT 40SM 08/02 A2997 RMK AO1 T00780022




USA.gov is the U.S. government's official web portal to all federal, state and local government web resources and services.